Time;durP1;ratioP1;P1;durP2;ratioP2;P2;SDS_P1;SDS_P2;PMS_P1;PMS_P2;Temp;Humidity;BMP_temperature;BMP_pressure;BME280_temperature;BME280_humidity;BME280_pressure;Samples;Min_cycle;Max_cycle;Signal;HPM_P1;HPM_P2
2023/04/28 00:01:40;;;;;;;4.40;2.10;;;;;;;12.09;42.21;94840.72;5130350;27;20707;-50
2023/04/28 00:04:07;;;;;;;2.20;2.03;;;;;;;12.07;42.20;94842.63;5130114;27;20188;-49
2023/04/28 00:06:34;;;;;;;4.30;2.10;;;;;;;12.02;42.35;94843.06;5130698;27;20267;-50
2023/04/28 00:09:01;;;;;;;4.73;2.13;;;;;;;11.80;42.44;94809.16;5130994;27;20183;-48
2023/04/28 00:11:29;;;;;;;6.33;2.30;;;;;;;11.90;42.51;94826.25;5130661;27;20196;-49
2023/04/28 00:13:56;;;;;;;3.53;2.17;;;;;;;11.97;42.48;94843.50;5130529;27;20318;-50
2023/04/28 00:16:24;;;;;;;5.50;2.43;;;;;;;11.95;42.44;94847.94;5130142;27;20259;-49
2023/04/28 00:18:51;;;;;;;2.30;2.10;;;;;;;11.92;42.47;94844.88;5130318;27;20192;-50
2023/04/28 00:21:17;;;;;;;2.40;2.20;;;;;;;11.89;42.71;94845.97;5130021;27;20550;-50
2023/04/28 00:23:44;;;;;;;4.73;2.27;;;;;;;11.87;42.72;94842.72;5129595;27;20252;-50
2023/04/28 00:26:11;;;;;;;2.87;2.43;;;;;;;11.86;42.71;94835.19;5129824;28;20661;-50
2023/04/28 00:28:39;;;;;;;4.70;2.43;;;;;;;11.84;42.60;94842.22;5109688;28;20263;-50
2023/04/28 00:31:11;;;;;;;4.63;2.50;;;;;;;11.68;42.61;94822.28;5109778;28;20193;-49
2023/04/28 00:33:38;;;;;;;4.27;1.97;;;;;;;11.77;42.58;94847.06;5109443;28;20225;-50
2023/04/28 00:36:06;;;;;;;3.80;2.37;;;;;;;11.63;42.71;94825.28;5115677;27;20805;-49
2023/04/28 00:38:32;;;;;;;2.73;2.37;;;;;;;11.72;42.88;94852.59;5135006;27;20180;-50
2023/04/28 00:40:59;;;;;;;2.50;2.13;;;;;;;11.70;42.85;94854.50;5136700;27;20621;-48
2023/04/28 00:43:26;;;;;;;2.43;2.23;;;;;;;11.67;42.92;94854.78;5135989;27;20199;-49
2023/04/28 00:45:54;;;;;;;2.30;2.10;;;;;;;11.67;42.80;94866.78;5136420;27;20211;-50
2023/04/28 00:48:22;;;;;;;2.50;2.20;;;;;;;11.65;43.02;94869.47;5134549;27;20188;-50
2023/04/28 00:50:49;;;;;;;2.43;2.30;;;;;;;11.62;42.64;94861.28;5135599;27;20233;-51
2023/04/28 00:53:16;;;;;;;3.73;2.60;;;;;;;11.62;43.09;94868.97;5136417;27;20218;-50
2023/04/28 00:55:43;;;;;;;2.80;2.23;;;;;;;11.58;43.05;94865.06;5133651;27;20308;-50
2023/04/28 00:58:10;;;;;;;4.27;2.50;;;;;;;11.54;43.12;94864.53;5134386;27;20200;-53
2023/04/28 01:00:36;;;;;;;3.43;2.30;;;;;;;11.52;43.23;94863.84;5133816;27;20185;-50
2023/04/28 01:03:05;;;;;;;3.10;2.33;;;;;;;11.49;43.29;94867.50;5134146;27;20192;-49
2023/04/28 01:05:32;;;;;;;5.30;2.47;;;;;;;10.95;43.31;94783.69;5133423;27;20176;-48
2023/04/28 01:07:59;;;;;;;2.67;2.43;;;;;;;11.45;43.29;94866.16;5133783;27;20196;-49
2023/04/28 01:10:27;;;;;;;2.53;2.13;;;;;;;11.44;43.29;94863.72;5133224;27;20645;-51
2023/04/28 01:12:54;;;;;;;3.50;2.37;;;;;;;11.35;43.48;94860.25;5133819;27;20664;-49
2023/04/28 01:15:21;;;;;;;2.93;2.57;;;;;;;11.40;43.36;94860.66;5134260;27;20215;-50
2023/04/28 01:17:48;;;;;;;4.73;2.30;;;;;;;11.38;43.39;94867.66;5133327;27;20677;-50
2023/04/28 01:20:16;;;;;;;4.13;2.37;;;;;;;11.36;43.49;94869.56;5133607;27;20649;-49
2023/04/28 01:22:43;;;;;;;3.90;2.50;;;;;;;11.34;43.58;94866.31;5133451;27;20747;-49
2023/04/28 01:25:11;;;;;;;2.63;2.17;;;;;;;11.34;43.53;94870.63;5133192;27;20239;-51
2023/04/28 01:27:38;;;;;;;2.37;2.10;;;;;;;11.31;43.46;94871.72;5135017;27;20231;-50
2023/04/28 01:30:06;;;;;;;4.03;2.40;;;;;;;11.28;43.53;94867.69;5133948;27;20184;-49
2023/04/28 01:32:33;;;;;;;2.13;2.00;;;;;;;11.24;43.56;94868.91;5133038;27;20185;-51
2023/04/28 01:35:00;;;;;;;3.27;2.40;;;;;;;11.24;43.46;94862.97;5133606;27;20249;-50
2023/04/28 01:37:26;;;;;;;3.03;2.23;;;;;;;11.20;43.65;94862.44;5134020;27;20176;-49
2023/04/28 01:39:53;;;;;;;4.93;2.27;;;;;;;11.21;43.54;94866.63;5133823;27;20573;-50
2023/04/28 01:42:21;;;;;;;4.10;2.57;;;;;;;11.06;43.55;94842.41;5132738;27;20193;-48
2023/04/28 01:44:48;;;;;;;4.57;2.23;;;;;;;11.17;43.59;94867.81;5132897;27;20192;-48
2023/04/28 01:47:15;;;;;;;2.10;2.00;;;;;;;11.16;43.65;94867.97;5132228;27;20176;-49
2023/04/28 01:49:42;;;;;;;2.60;2.37;;;;;;;11.03;43.66;94852.91;5132451;27;20203;-48
2023/04/28 01:52:08;;;;;;;2.63;2.33;;;;;;;11.13;43.64;94869.03;5132920;27;20653;-49
2023/04/28 01:54:35;;;;;;;4.60;2.20;;;;;;;11.12;43.75;94871.75;5131919;27;20692;-49
2023/04/28 01:57:02;;;;;;;3.47;1.97;;;;;;;11.09;43.81;94866.91;5133208;27;20196;-49
2023/04/28 01:59:31;;;;;;;3.03;2.37;;;;;;;10.98;43.74;94858.44;5132658;27;20192;-50
2023/04/28 02:01:57;;;;;;;2.23;2.03;;;;;;;11.07;43.76;94873.91;5132907;27;20185;-48
2023/04/28 02:04:24;;;;;;;2.83;2.10;;;;;;;11.04;43.79;94874.97;5132640;27;20199;-48
2023/04/28 02:06:51;;;;;;;2.43;2.23;;;;;;;11.03;43.74;94875.94;5133014;27;20193;-48
2023/04/28 02:09:18;;;;;;;3.27;2.30;;;;;;;10.99;43.87;94867.72;5131987;27;20197;-50
2023/04/28 02:11:44;;;;;;;2.50;2.30;;;;;;;10.98;43.85;94872.97;5132659;27;20571;-48
2023/04/28 02:14:11;;;;;;;2.83;2.10;;;;;;;10.97;43.78;94874.72;5132563;27;20184;-49
2023/04/28 02:16:39;;;;;;;4.43;2.57;;;;;;;10.94;43.55;94871.63;5132344;27;20568;-49
2023/04/28 02:19:06;;;;;;;4.03;2.37;;;;;;;10.91;43.90;94870.13;5132321;27;20188;-49
2023/04/28 02:21:33;;;;;;;2.97;2.23;;;;;;;10.86;43.95;94869.75;5131818;27;20675;-50
2023/04/28 02:24:00;;;;;;;3.17;2.27;;;;;;;10.88;43.93;94874.72;5132074;27;20220;-49
2023/04/28 02:26:27;;;;;;;5.43;2.30;;;;;;;10.77;44.10;94868.81;5131904;27;20309;-50
2023/04/28 02:28:54;;;;;;;2.73;2.23;;;;;;;10.87;44.02;94885.91;5132211;27;20860;-50
2023/04/28 02:31:20;;;;;;;2.13;1.93;;;;;;;10.73;44.19;94869.19;5131880;27;20196;-49
2023/04/28 02:33:49;;;;;;;2.73;2.37;;;;;;;10.83;44.30;94887.91;5131989;27;20188;-49
2023/04/28 02:36:15;;;;;;;3.97;2.50;;;;;;;10.80;44.28;94880.53;5131885;27;20208;-49
2023/04/28 02:38:42;;;;;;;4.73;2.40;;;;;;;10.80;44.22;94898.44;5131336;27;20214;-49
2023/04/28 02:41:10;;;;;;;2.40;2.17;;;;;;;10.76;44.29;94892.78;5131944;27;20188;-49
2023/04/28 02:43:38;;;;;;;4.07;2.70;;;;;;;10.74;44.56;94888.72;5131786;27;20219;-49
2023/04/28 02:46:05;;;;;;;2.43;2.23;;;;;;;10.70;44.21;94887.38;5131854;27;20185;-49
2023/04/28 02:48:34;;;;;;;3.23;2.50;;;;;;;10.59;44.42;94874.72;5131749;27;20185;-52
2023/04/28 02:51:02;;;;;;;3.90;2.23;;;;;;;10.72;44.30;94899.09;5131358;27;20296;-49
2023/04/28 02:53:29;;;;;;;4.63;2.10;;;;;;;10.69;44.23;94894.25;5131599;27;20573;-49
2023/04/28 02:55:56;;;;;;;2.60;2.20;;;;;;;10.70;44.35;94905.28;5131171;27;20251;-51
2023/04/28 02:58:23;;;;;;;9.27;2.57;;;;;;;10.68;44.45;94900.31;5131199;27;20208;-50
2023/04/28 03:00:50;;;;;;;3.40;2.47;;;;;;;10.66;44.52;94909.84;5131380;27;20195;-49
2023/04/28 03:03:17;;;;;;;4.57;2.00;;;;;;;10.17;44.53;94834.00;5131582;27;20192;-49
2023/04/28 03:05:44;;;;;;;3.87;2.60;;;;;;;10.64;44.55;94908.38;5131702;27;20180;-49
2023/04/28 03:08:13;;;;;;;4.87;2.50;;;;;;;10.63;44.53;94914.44;5130736;27;20212;-49
2023/04/28 03:10:40;;;;;;;4.63;2.57;;;;;;;10.54;44.54;94895.56;5130640;27;20660;-50
2023/04/28 03:13:07;;;;;;;2.50;2.27;;;;;;;10.58;44.57;94906.31;5130944;27;20232;-49
2023/04/28 03:15:33;;;;;;;2.17;2.03;;;;;;;10.59;44.64;94911.34;5131125;27;20263;-49
2023/04/28 03:18:00;;;;;;;2.57;2.30;;;;;;;10.60;44.62;94914.69;5131167;27;20207;-50
2023/04/28 03:20:27;;;;;;;2.50;2.30;;;;;;;10.57;44.49;94909.84;5130883;27;20181;-51
2023/04/28 03:22:54;;;;;;;3.70;2.60;;;;;;;10.59;44.59;94920.75;5130513;27;20625;-50
2023/04/28 03:25:22;;;;;;;5.20;2.27;;;;;;;10.59;44.39;94920.75;5131416;27;20561;-49
2023/04/28 03:27:49;;;;;;;4.50;2.17;;;;;;;10.60;44.54;94924.91;5131200;27;20193;-49
2023/04/28 03:30:15;;;;;;;3.90;2.20;;;;;;;10.53;44.56;94922.91;5131199;27;20309;-49
2023/04/28 03:32:42;;;;;;;3.03;2.30;;;;;;;10.58;44.43;94930.19;5130832;27;20644;-49
2023/04/28 03:35:10;;;;;;;3.63;2.30;;;;;;;10.62;44.29;94944.31;5131611;27;20310;-50
2023/04/28 03:37:36;;;;;;;3.07;2.50;;;;;;;10.64;44.46;94939.88;5131145;27;20520;-50
2023/04/28 03:40:04;;;;;;;5.03;2.60;;;;;;;10.62;44.33;94943.47;5131171;27;20183;-50
2023/04/28 03:42:32;;;;;;;5.33;2.40;;;;;;;10.66;44.50;94947.41;5130588;27;20188;-49
2023/04/28 03:44:58;;;;;;;4.97;2.23;;;;;;;10.68;44.41;94948.09;5130023;27;20203;-50
2023/04/28 03:47:25;;;;;;;5.20;2.47;;;;;;;10.70;44.37;94956.44;5130623;27;20176;-50
2023/04/28 03:49:52;;;;;;;4.10;2.67;;;;;;;10.73;44.27;94959.53;5130251;27;20203;-49
2023/04/28 03:52:19;;;;;;;4.60;2.67;;;;;;;10.76;44.25;94956.72;5131168;27;20215;-50
2023/04/28 03:54:46;;;;;;;3.93;2.73;;;;;;;10.77;44.13;94955.78;5130255;27;20705;-48
2023/04/28 03:57:13;;;;;;;3.37;2.27;;;;;;;10.84;44.03;94968.03;5130370;27;20249;-51
2023/04/28 03:59:41;;;;;;;4.50;2.80;;;;;;;10.89;44.04;94973.56;5130214;27;20188;-48
2023/04/28 04:02:07;;;;;;;3.30;2.43;;;;;;;10.93;43.96;94974.94;5130397;27;20196;-50
2023/04/28 04:04:34;;;;;;;4.50;2.80;;;;;;;10.97;43.82;94978.84;5130649;27;20176;-49
2023/04/28 04:07:02;;;;;;;6.20;2.60;;;;;;;11.00;43.88;94978.56;5130383;27;20629;-50
2023/04/28 04:09:29;;;;;;;5.07;2.67;;;;;;;11.09;43.67;94979.50;5130425;27;20624;-50
2023/04/28 04:11:57;;;;;;;3.77;2.33;;;;;;;11.14;43.56;94977.34;5129367;27;20248;-51
2023/04/28 04:14:24;;;;;;;4.47;2.50;;;;;;;11.20;43.63;94982.75;5130505;27;20388;-48
2023/04/28 04:16:54;;;;;;;4.10;2.63;;;;;;;10.85;43.52;94914.19;5130182;27;20224;-50
2023/04/28 04:19:22;;;;;;;7.03;2.70;;;;;;;11.31;43.28;94986.91;5130035;27;20219;-49
2023/04/28 04:21:49;;;;;;;5.03;2.77;;;;;;;11.39;43.42;94981.94;5130007;27;20275;-50
2023/04/28 04:24:16;;;;;;;3.07;2.43;;;;;;;11.46;43.30;94990.72;5129925;27;20317;-50
2023/04/28 04:26:43;;;;;;;5.53;2.80;;;;;;;11.53;43.17;94993.53;5129829;28;20295;-50
2023/04/28 04:29:09;;;;;;;2.40;2.20;;;;;;;11.59;43.01;95003.22;5129706;28;20184;-49
2023/04/28 04:31:36;;;;;;;2.67;2.27;;;;;;;11.68;43.09;94992.16;5143780;27;20191;-49
2023/04/28 04:34:04;;;;;;;4.33;2.23;;;;;;;11.86;43.02;94996.63;5148819;27;20632;-50
2023/04/28 04:36:31;;;;;;;3.13;2.70;;;;;;;12.17;42.52;94998.00;5129710;27;20216;-50
2023/04/28 04:38:58;;;;;;;6.00;2.60;;;;;;;12.63;41.86;94995.56;5129933;27;20207;-49
2023/04/28 04:41:26;;;;;;;4.43;2.10;;;;;;;13.14;41.96;94987.28;5130044;28;20726;-49
2023/04/28 04:43:53;;;;;;;4.23;2.00;;;;;;;13.90;41.69;94999.63;5129399;28;20192;-50
2023/04/28 04:46:20;;;;;;;2.40;2.20;;;;;;;14.67;41.13;95003.16;5129505;28;20192;-49
2023/04/28 04:48:47;;;;;;;3.27;2.20;;;;;;;15.55;58.16;94984.66;5129523;28;20195;-50
2023/04/28 04:51:15;;;;;;;3.70;2.50;;;;;;;16.54;59.27;95006.81;5130206;28;20192;-48
2023/04/28 04:53:42;;;;;;;5.23;2.77;;;;;;;17.47;58.84;95022.34;5129943;28;20181;-48
2023/04/28 04:56:09;;;;;;;4.27;2.37;;;;;;;18.39;56.30;95011.88;5129817;28;20227;-48
2023/04/28 04:58:36;;;;;;;7.80;2.53;;;;;;;19.26;53.17;95017.22;5129487;27;20189;-49
2023/04/28 05:01:03;;;;;;;6.13;2.90;;;;;;;20.01;50.12;95017.72;5128892;27;20224;-49
2023/04/28 05:03:30;;;;;;;6.30;2.77;;;;;;;20.69;47.75;95012.81;5129639;28;20192;-48
2023/04/28 05:05:57;;;;;;;6.60;2.57;;;;;;;21.36;45.58;95029.50;5129612;28;20192;-49
2023/04/28 05:08:25;;;;;;;4.90;2.40;;;;;;;21.94;43.49;95029.81;5129800;27;20185;-49
2023/04/28 05:10:52;;;;;;;7.40;2.50;;;;;;;22.39;41.40;95030.81;5129915;27;20196;-48
2023/04/28 05:13:19;;;;;;;6.38;2.35;;;;;;;22.90;39.15;95024.94;5129905;27;20296;-48
2023/04/28 05:15:45;;;;;;;3.10;2.72;;;;;;;23.34;37.69;95027.75;5129681;27;20224;-50
2023/04/28 05:18:12;;;;;;;5.47;2.40;;;;;;;23.75;36.34;95038.59;5129221;27;20584;-50
2023/04/28 05:20:39;;;;;;;6.40;2.25;;;;;;;24.19;36.23;95046.53;5130280;27;20276;-49
2023/04/28 05:23:06;;;;;;;6.82;2.28;;;;;;;24.59;35.71;95038.34;5131189;27;20180;-50
2023/04/28 05:25:35;;;;;;;4.85;2.42;;;;;;;24.97;36.06;95035.56;5133742;27;20210;-51
2023/04/28 05:28:06;;;;;;;8.10;2.80;;;;;;;25.32;36.15;95042.81;5133092;27;20197;-50
2023/04/28 05:30:32;;;;;;;5.00;2.30;;;;;;;25.72;36.01;95038.63;5132576;27;20228;-50
2023/04/28 05:32:59;;;;;;;6.13;2.40;;;;;;;26.07;35.72;95047.63;5132994;27;20215;-52
2023/04/28 05:35:26;;;;;;;13.85;2.40;;;;;;;26.41;36.11;95040.84;5132917;27;20185;-50
2023/04/28 05:37:53;;;;;;;2.90;2.20;;;;;;;26.71;35.54;95033.66;5127874;27;20189;-48
2023/04/28 05:40:20;;;;;;;4.28;2.30;;;;;;;27.04;35.00;95037.50;5131920;27;20188;-48
2023/04/28 05:42:48;;;;;;;3.90;1.90;;;;;;;27.33;34.70;95035.75;5132685;27;20196;-50
2023/04/28 05:45:15;;;;;;;3.83;1.90;;;;;;;27.59;34.72;95037.03;5131868;27;20339;-48
2023/04/28 05:47:42;;;;;;;3.10;2.05;;;;;;;27.84;34.34;95033.25;5112715;27;20200;-47
2023/04/28 05:50:10;;;;;;;2.13;1.92;;;;;;;28.09;33.88;95038.94;5131542;27;20203;-50
2023/04/28 05:52:36;;;;;;;2.58;1.88;;;;;;;28.32;34.01;95037.97;5129140;27;20196;-49
2023/04/28 05:55:03;;;;;;;2.85;2.10;;;;;;;28.52;33.77;95034.88;5131587;27;20192;-49
2023/04/28 05:57:30;;;;;;;4.10;1.92;;;;;;;28.69;33.13;95032.22;5132019;27;20223;-50
2023/04/28 05:59:58;;;;;;;4.43;2.15;;;;;;;28.89;32.70;95043.03;5129940;27;20239;-52
2023/04/28 06:02:25;;;;;;;2.17;1.95;;;;;;;29.06;32.72;95047.47;5132912;27;20192;-50
2023/04/28 06:04:52;;;;;;;4.10;2.17;;;;;;;29.22;32.48;95041.34;5131568;27;20207;-49
2023/04/28 06:07:19;;;;;;;2.88;1.88;;;;;;;29.40;32.02;95040.22;5131870;27;20184;-51
2023/04/28 06:09:46;;;;;;;3.72;1.88;;;;;;;29.53;31.68;95044.31;5132148;27;20196;-50
2023/04/28 06:12:14;;;;;;;4.13;2.20;;;;;;;29.73;31.77;95050.63;5131647;27;20196;-49
2023/04/28 06:14:40;;;;;;;4.85;2.15;;;;;;;29.88;31.55;95057.09;5131664;27;20624;-49
2023/04/28 06:17:09;;;;;;;2.42;2.00;;;;;;;30.00;31.08;95050.63;5131150;27;20220;-49
2023/04/28 06:19:36;;;;;;;2.97;1.83;;;;;;;30.13;30.52;95044.13;5131006;27;20227;-49
2023/04/28 06:22:02;;;;;;;3.40;2.20;;;;;;;30.23;30.16;95043.47;5131107;27;20188;-50
2023/04/28 06:24:29;;;;;;;2.22;2.03;;;;;;;30.38;29.98;95048.84;5130509;27;20239;-50
2023/04/28 06:26:56;;;;;;;3.28;2.10;;;;;;;30.49;29.79;95047.88;5131487;27;20199;-50
2023/04/28 06:29:23;;;;;;;3.20;2.40;;;;;;;30.61;30.03;95052.16;5130732;27;20185;-49
2023/04/28 06:31:51;;;;;;;3.47;1.90;;;;;;;30.73;29.30;95061.50;5132686;27;20185;-50
2023/04/28 06:34:19;;;;;;;3.20;1.92;;;;;;;30.85;29.71;95053.41;5132306;27;20192;-49
2023/04/28 06:36:46;;;;;;;2.80;1.98;;;;;;;30.94;29.58;95056.34;5135310;27;20549;-50
2023/04/28 06:39:13;;;;;;;3.15;2.00;;;;;;;31.04;29.00;95039.75;5131715;27;20822;-49
2023/04/28 06:41:40;;;;;;;2.20;2.00;;;;;;;31.12;28.76;95040.06;5131089;27;20187;-50
2023/04/28 06:44:07;;;;;;;4.47;2.38;;;;;;;31.21;28.76;95043.78;5131319;27;20191;-49
2023/04/28 06:46:33;;;;;;;4.97;2.13;;;;;;;31.29;28.46;95033.81;5130501;27;20196;-49
2023/04/28 06:49:00;;;;;;;5.53;2.03;;;;;;;31.37;28.41;95041.25;5130888;27;20215;-50
2023/04/28 06:51:28;;;;;;;2.92;2.08;;;;;;;31.43;28.63;95037.53;5130779;27;20203;-48
2023/04/28 06:53:55;;;;;;;3.55;2.05;;;;;;;31.48;28.08;95042.88;5131549;27;20184;-54
2023/04/28 06:56:22;;;;;;;2.42;1.88;;;;;;;31.51;28.28;95041.53;5130244;27;20212;-47
2023/04/28 06:58:49;;;;;;;2.97;2.30;;;;;;;31.51;28.06;95034.41;5130310;27;20632;-50
2023/04/28 07:01:16;;;;;;;3.53;2.33;;;;;;;31.53;27.84;95036.81;5130524;27;20283;-49
2023/04/28 07:03:43;;;;;;;3.67;1.90;;;;;;;31.56;28.07;95042.34;5130231;27;20270;-50
2023/04/28 07:06:10;;;;;;;3.00;2.05;;;;;;;31.58;27.73;95042.09;5130096;27;20229;-49
2023/04/28 07:08:38;;;;;;;4.65;1.95;;;;;;;31.60;27.42;95039.97;5130145;27;20196;-50
2023/04/28 07:11:05;;;;;;;2.60;1.90;;;;;;;31.60;27.67;95040.75;5130515;27;20189;-49
2023/04/28 07:13:32;;;;;;;4.45;2.00;;;;;;;31.63;27.66;95040.25;5131018;27;20180;-47
2023/04/28 07:15:59;;;;;;;2.50;1.98;;;;;;;31.63;27.81;95032.31;5130137;27;20317;-50
2023/04/28 07:18:26;;;;;;;4.60;2.00;;;;;;;31.67;27.65;95043.16;5130906;27;20191;-48
2023/04/28 07:20:53;;;;;;;2.80;1.92;;;;;;;31.36;27.45;94978.84;5129318;27;20196;-49
2023/04/28 07:23:20;;;;;;;2.42;1.98;;;;;;;31.71;27.07;95036.31;5129888;27;20223;-48
2023/04/28 07:25:48;;;;;;;5.35;2.00;;;;;;;31.76;27.06;95032.88;5129703;27;20282;-49
2023/04/28 07:28:15;;;;;;;3.00;2.05;;;;;;;31.77;27.55;95031.81;5130286;27;20193;-49
2023/04/28 07:30:41;;;;;;;2.15;1.73;;;;;;;31.75;27.40;95029.44;5129954;27;20204;-48
2023/04/28 07:33:08;;;;;;;2.10;1.80;;;;;;;31.76;27.45;95027.59;5130095;27;20192;-51
2023/04/28 07:35:35;;;;;;;2.92;2.30;;;;;;;31.75;27.22;95029.44;5128969;27;20184;-49
2023/04/28 07:38:02;;;;;;;3.75;2.10;;;;;;;31.73;27.33;95026.25;5129864;27;20215;-49
2023/04/28 07:40:29;;;;;;;3.78;1.90;;;;;;;31.72;27.04;95016.72;5127628;27;20278;-48
2023/04/28 07:42:57;;;;;;;2.10;1.90;;;;;;;31.71;27.26;95026.50;5129010;27;20666;-48
2023/04/28 07:45:25;;;;;;;2.42;1.90;;;;;;;31.68;27.47;95029.69;5128589;27;20631;-49
2023/04/28 07:47:51;;;;;;;3.13;2.20;;;;;;;31.66;27.43;95025.72;5129474;27;20187;-50
2023/04/28 07:50:18;;;;;;;2.35;2.10;;;;;;;31.56;27.01;95025.69;5130128;27;20229;-50
2023/04/28 07:52:45;;;;;;;2.35;2.15;;;;;;;31.53;26.95;95024.38;5128426;27;20192;-48
2023/04/28 07:55:12;;;;;;;2.75;1.90;;;;;;;31.47;27.02;95020.91;5129371;27;20196;-51
2023/04/28 07:57:39;;;;;;;2.78;2.10;;;;;;;31.42;27.07;95018.25;5128760;27;20276;-49
2023/04/28 08:00:10;;;;;;;2.28;2.08;;;;;;;31.35;27.08;95025.66;5129496;27;20204;-50
2023/04/28 08:02:37;;;;;;;4.07;2.25;;;;;;;31.27;27.53;95015.53;5128533;27;20192;-51
2023/04/28 08:05:05;;;;;;;1.90;1.75;;;;;;;31.20;27.57;95015.78;5129296;27;20180;-48
2023/04/28 08:07:32;;;;;;;3.10;1.95;;;;;;;31.14;27.56;95021.31;5129136;27;20303;-48
2023/04/28 08:10:00;;;;;;;1.92;1.70;;;;;;;31.04;27.10;95023.91;5129099;27;20241;-48
2023/04/28 08:12:27;;;;;;;2.45;1.90;;;;;;;30.90;27.65;95024.38;5128999;27;20286;-48
2023/04/28 08:14:53;;;;;;;2.35;1.77;;;;;;;30.66;27.62;95002.06;5129537;27;20245;-49
2023/04/28 08:17:22;;;;;;;3.50;1.90;;;;;;;30.66;27.79;95031.09;5128870;27;20204;-49
2023/04/28 08:19:49;;;;;;;2.60;1.80;;;;;;;30.56;27.42;95028.38;5129555;27;20196;-49
2023/04/28 08:22:16;;;;;;;1.85;1.75;;;;;;;30.45;27.77;95030.97;5128826;27;20280;-48
2023/04/28 08:24:42;;;;;;;2.85;1.70;;;;;;;30.41;27.89;95032.50;5128562;27;20747;-48
2023/04/28 08:27:09;;;;;;;2.20;1.70;;;;;;;30.36;28.13;95027.19;5128736;28;20245;-48
2023/04/28 08:29:36;;;;;;;2.15;1.95;;;;;;;30.30;28.16;95024.78;5129074;28;20199;-49
2023/04/28 08:32:05;;;;;;;2.60;1.98;;;;;;;30.20;28.11;95018.38;5128914;28;20192;-49
2023/04/28 08:34:33;;;;;;;2.20;1.80;;;;;;;30.14;28.04;95026.47;5128960;28;20204;-49
2023/04/28 08:37:00;;;;;;;3.22;2.13;;;;;;;30.07;28.24;95016.13;5129205;28;20265;-49
2023/04/28 08:39:28;;;;;;;2.05;1.80;;;;;;;29.93;28.06;95012.34;5128741;28;20199;-50
2023/04/28 08:41:54;;;;;;;3.83;2.30;;;;;;;29.84;28.41;95012.00;5128951;28;20210;-49
2023/04/28 08:44:22;;;;;;;3.50;1.92;;;;;;;29.80;27.92;95018.81;5129048;27;20199;-47
2023/04/28 08:46:50;;;;;;;2.05;1.80;;;;;;;29.68;28.40;95016.31;5128881;28;20198;-49
2023/04/28 08:49:18;;;;;;;2.35;2.00;;;;;;;29.58;28.75;95012.78;5128702;28;20203;-48
2023/04/28 08:51:52;;;;;;;2.45;1.70;;;;;;;29.43;28.27;95003.66;5128997;28;20679;-48
2023/04/28 08:54:20;;;;;;;2.22;1.70;;;;;;;29.32;28.47;95007.25;5127588;28;20242;-48
2023/04/28 08:56:47;;;;;;;4.03;1.77;;;;;;;29.16;28.60;95006.25;5129889;27;20219;-48
2023/04/28 08:59:17;;;;;;;3.55;1.90;;;;;;;29.02;28.56;94999.78;5132468;27;20180;-49
2023/04/28 09:01:43;;;;;;;1.80;1.70;;;;;;;28.90;28.98;94996.44;5131352;27;20192;-49
2023/04/28 09:04:10;;;;;;;1.85;1.70;;;;;;;28.79;29.08;94999.97;5130254;27;20199;-48
2023/04/28 09:06:38;;;;;;;2.72;1.80;;;;;;;28.66;28.90;95001.13;5130367;27;20197;-47
2023/04/28 09:09:26;;;;;;;5.75;1.80;;;;;;;28.52;29.37;94994.63;5130325;27;20188;-49
2023/04/28 09:11:55;;;;;;;3.55;2.00;;;;;;;28.41;29.05;94988.41;5129778;27;20192;-48
2023/04/28 09:14:22;;;;;;;2.08;1.85;;;;;;;28.28;29.40;94984.25;5129676;27;20263;-48
2023/04/28 09:16:50;;;;;;;1.75;1.60;;;;;;;28.18;29.41;94979.66;5129908;27;20204;-48
2023/04/28 09:19:17;;;;;;;2.47;2.13;;;;;;;28.07;29.83;94979.75;5129771;27;20181;-47
2023/04/28 09:21:52;;;;;;;2.03;1.77;;;;;;;27.93;29.81;94974.78;5131149;27;20187;-49
2023/04/28 09:24:31;;;;;;;4.20;2.28;;;;;;;27.81;29.68;94973.25;5129468;27;20304;-48
2023/04/28 09:26:58;;;;;;;1.70;1.60;;;;;;;27.71;30.03;94972.03;5130177;27;20206;-47
2023/04/28 09:29:25;;;;;;;1.77;1.67;;;;;;;27.61;29.88;94974.50;5129650;27;20553;-47
2023/04/28 09:31:53;;;;;;;3.00;2.13;;;;;;;27.53;29.78;94964.38;5130486;27;20190;-49
2023/04/28 09:34:20;;;;;;;2.88;2.00;;;;;;;27.45;30.02;94962.13;5131484;27;20172;-48
2023/04/28 09:36:46;;;;;;;2.75;1.80;;;;;;;27.27;29.97;94948.16;5131920;27;20184;-49
2023/04/28 09:39:13;;;;;;;4.28;2.28;;;;;;;27.24;30.34;94958.34;5131731;27;20203;-50
2023/04/28 09:41:44;;;;;;;2.53;1.70;;;;;;;27.06;29.96;94950.63;5132230;27;20203;-49
2023/04/28 09:44:12;;;;;;;2.33;1.77;;;;;;;26.88;29.99;94920.91;5132518;27;20193;-50
2023/04/28 09:46:39;;;;;;;5.53;1.70;;;;;;;26.95;29.84;94947.03;5132532;27;20196;-50
2023/04/28 09:49:06;;;;;;;3.45;2.00;;;;;;;26.87;29.63;94950.00;5131948;27;20553;-49
2023/04/28 09:51:33;;;;;;;1.70;1.58;;;;;;;26.77;29.62;94953.25;5131399;27;20196;-49
2023/04/28 09:54:01;;;;;;;4.60;2.28;;;;;;;26.67;29.75;94945.94;5131743;27;20184;-49
2023/04/28 09:56:29;;;;;;;2.38;2.00;;;;;;;26.58;30.03;94943.91;5131709;27;20188;-49
2023/04/28 09:58:59;;;;;;;2.35;1.92;;;;;;;26.48;29.98;94937.44;5132121;27;20208;-47
2023/04/28 10:01:27;;;;;;;3.50;2.17;;;;;;;26.38;30.00;94928.50;5131271;27;20533;-48
2023/04/28 10:03:56;;;;;;;3.03;2.20;;;;;;;26.30;29.94;94927.06;5131476;27;20692;-48
2023/04/28 10:06:23;;;;;;;3.90;2.05;;;;;;;26.20;29.69;94930.22;5130547;27;20286;-48
2023/04/28 10:08:51;;;;;;;2.25;1.60;;;;;;;26.01;29.86;94908.59;5131030;27;20283;-49
2023/04/28 10:11:19;;;;;;;2.65;1.90;;;;;;;26.05;29.78;94924.66;5131129;27;20202;-49
2023/04/28 10:13:47;;;;;;;4.72;2.33;;;;;;;25.97;30.32;94914.53;5131517;27;20253;-48
2023/04/28 10:16:16;;;;;;;4.75;1.98;;;;;;;25.90;29.88;94911.22;5131145;27;20188;-50
2023/04/28 10:18:43;;;;;;;3.40;1.88;;;;;;;25.86;29.96;94913.47;5132329;27;20220;-51
2023/04/28 10:21:12;;;;;;;6.38;1.95;;;;;;;25.78;30.03;94924.31;5131465;27;20215;-49
2023/04/28 10:24:07;;;;;;;1.60;1.50;;;;;;;25.72;29.86;94918.13;5128622;27;20224;-48
2023/04/28 10:27:09;;;;;;;2.20;1.85;;;;;;;25.62;30.37;94907.41;5131152;27;20196;-47
2023/04/28 10:29:36;;;;;;;2.15;1.95;;;;;;;25.60;30.46;94917.28;5067561;28;20296;-49
2023/04/28 10:32:21;;;;;;;2.38;1.70;;;;;;;25.53;30.52;94909.56;5065107;28;20376;-49
2023/04/28 10:34:48;;;;;;;3.03;1.75;;;;;;;25.52;30.62;94907.19;5067159;28;20709;-50
2023/04/28 10:37:16;;;;;;;2.13;1.55;;;;;;;25.51;30.89;94902.94;5067383;28;20213;-47
2023/04/28 10:40:15;;;;;;;1.90;1.70;;;;;;;25.38;30.68;94887.44;5067147;28;20194;-49
2023/04/28 10:42:52;;;;;;;2.13;1.88;;;;;;;25.46;30.96;94910.69;5065837;28;20569;-49
2023/04/28 10:46:11;;;;;;;1.77;1.67;;;;;;;25.44;30.77;94894.41;5066802;28;20316;-49
2023/04/28 10:48:55;;;;;;;2.97;1.65;;;;;;;25.26;31.13;94856.00;5065473;28;20198;-48
2023/04/28 10:51:24;;;;;;;1.70;1.60;;;;;;;25.39;31.02;94878.53;5066017;28;20229;-51
2023/04/28 10:54:26;;;;;;;2.97;1.92;;;;;;;25.37;31.27;94880.59;5066269;28;20198;-49
2023/04/28 10:57:16;;;;;;;2.05;1.83;;;;;;;25.31;31.29;94877.06;5069387;28;20197;-48
2023/04/28 10:59:43;;;;;;;2.90;1.73;;;;;;;25.20;31.19;94862.91;5078821;27;20223;-50
2023/04/28 11:02:39;;;;;;;2.72;1.92;;;;;;;25.27;31.31;94876.72;5131771;27;20192;-50
2023/04/28 11:05:18;;;;;;;3.70;2.05;;;;;;;25.22;31.29;94878.44;5128703;27;20185;-49
2023/04/28 11:08:30;;;;;;;3.13;2.00;;;;;;;25.15;31.66;94864.63;5129510;27;20677;-50
2023/04/28 11:11:19;;;;;;;1.65;1.52;;;;;;;25.09;31.47;94857.69;5066581;28;20630;-49
2023/04/28 11:13:47;;;;;;;3.13;1.60;;;;;;;25.04;31.81;94855.69;5066408;28;20241;-49
2023/04/28 11:16:22;;;;;;;2.20;1.92;;;;;;;25.04;31.67;94863.53;5065857;28;20565;-49
2023/04/28 11:18:58;;;;;;;2.10;1.77;;;;;;;24.95;31.76;94849.16;5066465;28;20567;-51
2023/04/28 11:21:28;;;;;;;1.58;1.48;;;;;;;24.90;31.92;94843.81;5066266;28;20327;-49
2023/04/28 11:23:55;;;;;;;2.35;1.70;;;;;;;24.92;32.15;94850.44;5063878;28;20229;-50
2023/04/28 11:26:23;;;;;;;1.85;1.67;;;;;;;24.97;32.23;94855.00;5066485;28;20206;-49
2023/04/28 11:28:51;;;;;;;2.00;1.80;;;;;;;24.93;32.23;94849.41;5067960;28;20226;-50
2023/04/28 11:31:20;;;;;;;1.90;1.80;;;;;;;24.43;32.00;94765.97;5067005;28;20194;-48
2023/04/28 11:33:51;;;;;;;2.15;2.05;;;;;;;24.93;32.40;94844.16;5066255;28;20208;-52
2023/04/28 11:36:31;;;;;;;3.42;2.00;;;;;;;24.89;32.18;94843.00;5066128;28;20190;-48
2023/04/28 11:38:58;;;;;;;2.25;1.90;;;;;;;24.84;32.17;94842.88;5063552;28;20209;-48
2023/04/28 11:41:26;;;;;;;1.83;1.67;;;;;;;24.79;32.36;94834.91;5065624;28;20251;-48